Time;durP1;ratioP1;P1;durP2;ratioP2;P2;SDS_P1;SDS_P2;PMS_P1;PMS_P2;Temp;Humidity;BMP_temperature;BMP_pressure;BME280_temperature;BME280_humidity;BME280_pressure;Samples;Min_cycle;Max_cycle;Signal;HPM_P1;HPM_P2
2022/12/21 00:01:21;;;;;;;65.08;45.43;;;19.40;86.30;;;;;;1799680;79;21127;-82
2022/12/21 00:03:55;;;;;;;66.82;46.23;;;19.40;86.70;;;;;;1792597;79;21135;-83
2022/12/21 00:06:28;;;;;;;61.77;45.73;;;19.40;86.70;;;;;;1780534;79;21068;-82
2022/12/21 00:09:00;;;;;;;69.80;45.65;;;19.40;86.80;;;;;;1806116;79;21182;-82
2022/12/21 00:11:33;;;;;;;71.15;45.17;;;19.50;87.10;;;;;;1789218;78;21702;-82
2022/12/21 00:14:06;;;;;;;69.53;47.27;;;19.50;87.00;;;;;;1804006;76;21139;-83
2022/12/21 00:16:39;;;;;;;65.50;45.30;;;19.40;87.50;;;;;;1832821;78;21081;-82
2022/12/21 00:19:14;;;;;;;69.35;45.33;;;19.40;87.60;;;;;;1801405;77;21621;-83
2022/12/21 00:21:46;;;;;;;68.02;44.08;;;19.40;88.00;;;;;;1800505;78;21219;-83
2022/12/21 00:24:18;;;;;;;64.10;44.53;;;19.40;88.40;;;;;;1795599;78;21168;-82
2022/12/21 00:26:49;;;;;;;58.68;42.17;;;19.40;89.50;;;;;;1786880;79;21164;-82
2022/12/21 00:29:20;;;;;;;60.05;42.33;;;19.40;88.60;;;;;;1826338;77;21298;-83
2022/12/21 00:31:51;;;;;;;61.60;42.53;;;19.40;89.00;;;;;;1795001;78;21177;-82
2022/12/21 00:34:30;;;;;;;55.60;41.00;;;19.50;89.00;;;;;;1809787;77;21719;-82
2022/12/21 00:37:01;;;;;;;58.00;42.48;;;19.50;88.80;;;;;;1800405;79;21149;-83
2022/12/21 00:39:32;;;;;;;60.30;40.98;;;19.60;88.80;;;;;;1806758;78;21633;-83
2022/12/21 00:42:04;;;;;;;61.23;41.73;;;19.60;88.60;;;;;;1774174;80;21574;-82
2022/12/21 00:44:37;;;;;;;53.90;38.38;;;19.70;88.30;;;;;;1781499;80;21184;-83
2022/12/21 00:47:08;;;;;;;55.05;38.13;;;19.80;88.30;;;;;;1794509;79;21150;-83
2022/12/21 00:49:39;;;;;;;53.55;37.80;;;19.90;88.00;;;;;;1799631;78;21259;-83
2022/12/21 00:52:10;;;;;;;54.35;36.25;;;20.00;88.10;;;;;;1790167;78;21554;-81
2022/12/21 00:54:42;;;;;;;50.80;35.20;;;20.10;87.40;;;;;;1772095;79;21123;-83
2022/12/21 00:57:13;;;;;;;52.90;36.45;;;20.20;87.40;;;;;;1779463;79;21632;-70
2022/12/21 00:59:45;;;;;;;52.80;35.60;;;20.30;87.10;;;;;;1802116;78;21628;-72
2022/12/21 01:02:17;;;;;;;49.20;34.40;;;20.40;87.30;;;;;;1758922;81;21225;-71
2022/12/21 01:04:49;;;;;;;50.23;33.45;;;20.50;87.60;;;;;;1785836;79;21076;-70
2022/12/21 01:07:20;;;;;;;46.23;30.20;;;20.60;87.20;;;;;;1794105;78;21157;-70
2022/12/21 01:09:51;;;;;;;44.30;28.73;;;20.70;86.30;;;;;;1832588;77;21149;-70
2022/12/21 01:12:22;;;;;;;42.35;26.30;;;20.80;86.60;;;;;;1792608;78;21569;-71
2022/12/21 01:14:53;;;;;;;34.95;24.27;;;20.90;86.20;;;;;;1774896;79;21223;-69
2022/12/21 01:17:26;;;;;;;34.53;23.30;;;21.00;85.90;;;;;;1775287;80;21547;-69
2022/12/21 01:20:01;;;;;;;33.30;23.35;;;21.10;85.80;;;;;;1787106;79;21154;-70
2022/12/21 01:22:34;;;;;;;32.15;21.90;;;21.10;85.50;;;;;;1799448;78;21145;-70
2022/12/21 01:25:06;;;;;;;28.77;20.77;;;21.30;85.20;;;;;;1783411;78;21109;-69
2022/12/21 01:27:41;;;;;;;32.40;21.12;;;21.30;85.10;;;;;;1787620;78;21227;-69
2022/12/21 01:30:12;;;;;;;32.25;22.22;;;21.40;85.10;;;;;;1789889;78;21091;-70
2022/12/21 01:32:43;;;;;;;27.65;18.70;;;21.50;84.90;;;;;;1812667;77;21141;-72
2022/12/21 01:35:15;;;;;;;31.42;19.48;;;21.50;84.90;;;;;;1798082;78;21129;-70
2022/12/21 01:37:46;;;;;;;28.42;19.17;;;21.60;84.90;;;;;;1811132;77;21106;-71
2022/12/21 01:40:18;;;;;;;25.55;18.17;;;21.60;84.60;;;;;;1815228;77;21157;-71
2022/12/21 01:42:50;;;;;;;24.25;17.52;;;21.70;84.60;;;;;;1804942;78;21157;-71
2022/12/21 01:45:26;;;;;;;25.02;16.82;;;21.70;84.70;;;;;;1752479;79;21673;-71
2022/12/21 01:48:03;;;;;;;27.98;17.67;;;21.80;84.60;;;;;;1807253;77;21135;-71
2022/12/21 01:50:37;;;;;;;27.93;16.80;;;21.80;84.40;;;;;;1804376;77;21732;-72
2022/12/21 01:53:14;;;;;;;25.02;16.32;;;21.90;85.00;;;;;;1816452;77;21143;-71
2022/12/21 01:55:51;;;;;;;25.48;16.80;;;22.00;84.20;;;;;;1811374;77;21194;-71
2022/12/21 01:58:23;;;;;;;24.43;16.77;;;22.00;84.10;;;;;;1791772;79;21667;-70
2022/12/21 02:00:56;;;;;;;30.85;17.95;;;22.10;85.10;;;;;;1821309;77;21113;-71
2022/12/21 02:03:33;;;;;;;26.42;17.73;;;22.10;83.90;;;;;;1820031;77;21070;-72
2022/12/21 02:06:27;;;;;;;28.62;17.42;;;22.10;84.10;;;;;;1826625;77;21607;-71
2022/12/21 02:09:01;;;;;;;35.55;18.37;;;22.20;84.00;;;;;;1823638;77;21088;-69
2022/12/21 02:11:33;;;;;;;28.75;17.67;;;22.20;83.90;;;;;;1816765;77;21131;-71
2022/12/21 02:14:06;;;;;;;28.80;16.87;;;22.30;84.00;;;;;;1817824;77;21152;-72
2022/12/21 02:16:40;;;;;;;28.42;19.27;;;22.30;83.40;;;;;;1808544;77;21549;-71
2022/12/21 02:19:35;;;;;;;26.23;15.83;;;22.30;83.60;;;;;;1802810;79;21664;-70
2022/12/21 02:22:15;;;;;;;24.85;14.63;;;22.40;83.30;;;;;;1811318;77;21201;-72
2022/12/21 02:25:01;;;;;;;22.80;12.95;;;22.50;83.00;;;;;;1805603;78;21156;-71
2022/12/21 02:27:54;;;;;;;16.32;12.03;;;22.50;83.00;;;;;;1822298;77;21098;-72
2022/12/21 02:30:28;;;;;;;17.82;10.55;;;22.60;82.70;;;;;;1811056;77;21247;-71
2022/12/21 02:33:07;;;;;;;17.00;11.20;;;22.60;82.40;;;;;;1814358;77;21069;-70
2022/12/21 02:35:57;;;;;;;14.45;10.08;;;22.70;82.30;;;;;;1832841;77;21127;-72
2022/12/21 02:38:51;;;;;;;15.25;10.53;;;22.70;82.20;;;;;;1755151;81;21176;-70
2022/12/21 02:41:27;;;;;;;12.95;9.98;;;22.80;82.10;;;;;;1826271;78;21519;-71
2022/12/21 02:44:13;;;;;;;11.80;7.90;;;22.90;81.60;;;;;;1822479;78;21060;-70
2022/12/21 02:46:52;;;;;;;13.62;8.95;;;22.90;81.30;;;;;;1836318;77;21127;-69
2022/12/21 02:49:26;;;;;;;;;;;23.00;81.10;;;;;;1829934;77;21656;-71
2022/12/21 02:52:16;;;;;;;16.35;11.10;;;23.00;81.10;;;;;;1827840;78;20233;-71
2022/12/21 02:54:47;;;;;;;17.60;11.18;;;23.10;81.00;;;;;;1832733;77;21182;-69
2022/12/21 02:57:22;;;;;;;17.85;11.90;;;23.10;80.90;;;;;;1828486;78;21167;-69
2022/12/21 02:59:53;;;;;;;19.87;13.50;;;23.10;80.90;;;;;;1827314;78;21166;-71
2022/12/21 03:05:47;;;;;;;18.57;12.15;;;23.20;80.70;;;;;;1814869;78;21183;-70
2022/12/21 03:08:29;;;;;;;21.42;11.80;;;23.30;80.90;;;;;;1829020;78;21523;-71
2022/12/21 03:11:03;;;;;;;17.55;12.25;;;23.30;80.70;;;;;;1834782;77;21262;-71
2022/12/21 03:13:37;;;;;;;18.77;12.80;;;23.40;80.60;;;;;;1829135;77;21142;-71
2022/12/21 03:16:15;;;;;;;17.67;12.85;;;23.40;80.70;;;;;;1830690;78;21564;-70
2022/12/21 03:19:04;;;;;;;20.20;12.40;;;23.50;80.70;;;;;;1813640;78;21094;-70
2022/12/21 03:21:49;;;;;;;27.02;12.85;;;23.60;80.40;;;;;;1827576;78;21095;-71
2022/12/21 03:24:28;;;;;;;18.17;11.48;;;23.70;79.90;;;;;;1828690;78;21177;-69
2022/12/21 03:27:08;;;;;;;18.05;9.98;;;23.80;80.50;;;;;;1821422;78;21168;-70
2022/12/21 03:29:44;;;;;;;16.97;9.88;;;23.80;79.20;;;;;;1829970;77;21193;-71
2022/12/21 03:32:18;;;;;;;15.40;9.40;;;23.90;78.90;;;;;;1828142;78;21631;-70
2022/12/21 03:34:56;;;;;;;14.63;9.45;;;24.00;78.70;;;;;;1830822;78;21103;-71
2022/12/21 03:37:33;;;;;;;14.95;8.48;;;24.10;78.50;;;;;;1842377;75;22249;-71
2022/12/21 03:40:16;;;;;;;11.57;8.13;;;24.20;78.00;;;;;;1870373;76;21115;-71
2022/12/21 03:43:00;;;;;;;13.85;8.15;;;24.30;77.50;;;;;;1870640;76;21793;-70
2022/12/21 03:45:39;;;;;;;15.03;8.10;;;24.40;77.00;;;;;;1849290;76;21724;-68
2022/12/21 03:48:19;;;;;;;12.07;7.78;;;24.50;77.00;;;;;;1861405;76;21131;-71
2022/12/21 03:50:52;;;;;;;12.85;7.05;;;24.60;76.70;;;;;;1846750;77;21162;-71
2022/12/21 03:53:34;;;;;;;10.00;6.80;;;24.80;76.30;;;;;;1862100;77;21154;-72
2022/12/21 03:56:08;;;;;;;11.55;6.92;;;24.90;75.40;;;;;;1862528;76;21074;-71
2022/12/21 03:58:39;;;;;;;9.98;6.67;;;24.90;75.10;;;;;;1863199;77;21072;-71
2022/12/21 04:01:13;;;;;;;9.40;6.58;;;25.00;74.90;;;;;;1863537;77;21199;-70
2022/12/21 04:03:46;;;;;;;10.40;6.55;;;25.10;74.70;;;;;;1865888;75;21081;-70
2022/12/21 04:06:20;;;;;;;10.75;6.15;;;25.10;74.20;;;;;;1849954;75;21213;-69
2022/12/21 04:08:56;;;;;;;11.63;6.15;;;25.20;74.10;;;;;;1855832;75;21096;-71
2022/12/21 04:14:19;;;;;;;9.38;6.33;;;25.40;73.50;;;;;;1863742;77;21590;-70
2022/12/21 04:16:51;;;;;;;12.88;6.40;;;25.50;72.90;;;;;;1863008;75;21135;-72
2022/12/21 04:30:31;;;;;;;9.10;5.10;;;26.10;71.80;;;;;;1803247;78;21156;-69
2022/12/21 04:33:03;;;;;;;14.33;5.47;;;26.30;71.10;;;;;;1793757;80;21136;-70
2022/12/21 04:35:34;;;;;;;6.85;5.28;;;26.40;70.40;;;;;;1795556;79;21143;-71
2022/12/21 04:38:05;;;;;;;6.60;4.35;;;26.50;70.10;;;;;;1799562;79;21100;-71
2022/12/21 04:40:38;;;;;;;9.90;4.80;;;26.60;69.20;;;;;;1812534;77;21138;-70
2022/12/21 04:43:09;;;;;;;6.62;4.05;;;26.70;68.80;;;;;;1797541;79;21217;-70
2022/12/21 04:45:41;;;;;;;7.28;4.08;;;26.80;68.10;;;;;;1795593;79;21200;-69
2022/12/21 04:48:12;;;;;;;6.25;3.55;;;26.80;67.90;;;;;;1804945;79;21108;-70
2022/12/21 04:50:44;;;;;;;8.88;4.22;;;26.90;68.10;;;;;;1828234;78;21070;-70
2022/12/21 04:53:15;;;;;;;7.00;3.83;;;26.90;67.70;;;;;;1773144;81;21178;-70
2022/12/21 04:55:46;;;;;;;8.18;4.30;;;27.00;67.30;;;;;;1823860;77;21157;-71
2022/12/21 04:58:18;;;;;;;7.05;3.90;;;27.10;67.40;;;;;;1804979;79;21352;-71
2022/12/21 05:00:49;;;;;;;7.45;3.77;;;27.20;68.00;;;;;;1827155;77;21749;-71
2022/12/21 05:03:20;;;;;;;10.28;3.85;;;27.20;66.70;;;;;;1804448;79;21209;-70
2022/12/21 05:05:52;;;;;;;5.08;3.60;;;27.30;66.30;;;;;;1793860;80;21560;-70
2022/12/21 05:08:26;;;;;;;5.42;4.03;;;27.40;66.60;;;;;;1771732;80;21701;-70
2022/12/21 05:10:58;;;;;;;4.62;3.58;;;27.50;66.50;;;;;;1792870;80;21158;-70
2022/12/21 05:13:29;;;;;;;6.05;4.05;;;27.60;65.80;;;;;;1790257;80;21182;-70
2022/12/21 05:16:05;;;;;;;8.00;4.20;;;27.70;64.40;;;;;;1809704;78;21512;-70
2022/12/21 05:18:36;;;;;;;6.15;3.92;;;27.70;65.10;;;;;;1826179;77;21253;-71
2022/12/21 05:21:08;;;;;;;7.28;4.85;;;27.70;64.70;;;;;;1776336;80;21147;-72
2022/12/21 05:23:41;;;;;;;9.28;4.40;;;27.80;64.80;;;;;;1775893;79;21705;-71
2022/12/21 05:26:25;;;;;;;7.25;4.20;;;27.80;64.80;;;;;;1792682;79;21204;-71
2022/12/21 05:28:57;;;;;;;6.05;3.72;;;27.70;64.60;;;;;;1796396;79;21091;-71
2022/12/21 05:31:31;;;;;;;6.92;4.20;;;27.80;64.50;;;;;;1821052;78;21534;-71
2022/12/21 05:34:02;;;;;;;8.50;4.58;;;27.80;64.40;;;;;;1814680;78;21092;-71
2022/12/21 05:36:33;;;;;;;6.67;4.97;;;27.90;64.50;;;;;;1778496;80;21194;-68
2022/12/21 05:39:04;;;;;;;10.18;4.78;;;27.90;64.00;;;;;;1832203;77;21116;-71
2022/12/21 05:41:36;;;;;;;8.68;4.70;;;27.90;64.10;;;;;;1804868;79;21159;-71
2022/12/21 05:44:12;;;;;;;8.57;4.50;;;28.00;64.10;;;;;;1838496;77;21087;-70
2022/12/21 05:46:44;;;;;;;4.78;3.80;;;28.10;63.50;;;;;;1838142;77;21151;-70
2022/12/21 05:49:17;;;;;;;10.20;3.95;;;28.10;63.70;;;;;;1819693;77;21227;-71
2022/12/21 05:51:49;;;;;;;6.70;4.50;;;28.10;63.20;;;;;;1801965;79;21158;-71
2022/12/21 05:54:21;;;;;;;8.58;4.55;;;28.20;63.00;;;;;;1790442;79;21102;-70
2022/12/21 05:56:52;;;;;;;8.38;4.37;;;28.20;63.50;;;;;;1805424;79;21184;-70
2022/12/21 05:59:23;;;;;;;7.75;4.65;;;28.20;63.20;;;;;;1795475;79;21217;-70
2022/12/21 06:01:56;;;;;;;6.78;4.80;;;28.20;63.20;;;;;;1794454;79;22229;-71
2022/12/21 06:04:47;;;;;;;7.22;4.85;;;28.30;63.20;;;;;;1805734;79;21144;-71
2022/12/21 06:07:18;;;;;;;6.95;4.83;;;28.30;63.50;;;;;;1827925;78;21163;-70
2022/12/21 06:09:49;;;;;;;6.90;4.47;;;28.30;62.90;;;;;;1808236;78;21184;-70
2022/12/21 06:12:21;;;;;;;7.70;4.30;;;28.30;63.30;;;;;;1800269;78;21161;-70
2022/12/21 06:14:52;;;;;;;5.78;4.33;;;28.30;63.50;;;;;;1808317;79;21159;-69
2022/12/21 06:17:23;;;;;;;6.90;4.58;;;28.30;63.00;;;;;;1822841;78;21159;-69
2022/12/21 06:19:53;;;;;;;7.67;4.37;;;28.40;64.00;;;;;;1830286;78;21557;-70
2022/12/21 06:22:25;;;;;;;6.22;4.00;;;28.40;63.00;;;;;;1804913;78;21153;-70
2022/12/21 06:24:57;;;;;;;5.08;4.05;;;28.40;63.20;;;;;;1808239;76;21169;-71
2022/12/21 06:27:29;;;;;;;5.30;4.05;;;28.40;62.20;;;;;;1793872;79;21550;-70
2022/12/21 06:30:01;;;;;;;6.05;4.05;;;28.50;62.00;;;;;;1841188;77;21187;-70
2022/12/21 06:32:34;;;;;;;5.67;4.17;;;28.50;61.70;;;;;;1832671;77;21107;-70
2022/12/21 06:35:06;;;;;;;6.45;4.12;;;28.60;62.50;;;;;;1807758;78;21192;-71
2022/12/21 06:37:39;;;;;;;6.25;4.58;;;28.70;61.80;;;;;;1807150;79;21176;-68
2022/12/21 06:40:11;;;;;;;7.85;4.15;;;;;;;;;;1807946;78;21097;-70
2022/12/21 06:42:42;;;;;;;5.72;4.40;;;28.70;60.90;;;;;;1789346;78;21275;-69
2022/12/21 06:45:15;;;;;;;6.80;4.87;;;28.70;61.70;;;;;;1785855;80;21158;-71
2022/12/21 06:47:46;;;;;;;7.58;4.40;;;28.70;62.00;;;;;;1786732;78;21106;-71
2022/12/21 06:50:17;;;;;;;6.83;4.35;;;28.70;61.70;;;;;;1812518;78;21158;-71
2022/12/21 06:52:49;;;;;;;7.22;4.70;;;28.70;61.90;;;;;;1810516;78;21201;-70
2022/12/21 06:55:20;;;;;;;4.47;3.85;;;28.70;61.80;;;;;;1814564;78;21092;-69
2022/12/21 06:57:56;;;;;;;7.28;3.92;;;28.70;61.30;;;;;;1824139;78;22157;-71
2022/12/21 07:00:25;;;;;;;7.65;4.08;;;28.60;62.50;;;;;;1821808;77;21671;-72
2022/12/21 07:02:59;;;;;;;5.08;4.20;;;28.60;61.50;;;;;;1821737;77;21301;-70
2022/12/21 07:05:30;;;;;;;6.92;4.20;;;28.60;61.70;;;;;;1815348;78;21200;-70
2022/12/21 07:08:01;;;;;;;6.72;3.87;;;28.60;62.00;;;;;;1831424;78;22756;-72
2022/12/21 07:10:34;;;;;;;6.55;4.15;;;28.60;61.80;;;;;;1824104;78;21121;-70
2022/12/21 07:13:07;;;;;;;5.50;3.85;;;28.50;62.10;;;;;;1807319;79;21094;-69
2022/12/21 07:15:44;;;;;;;9.68;4.42;;;28.50;62.00;;;;;;1829814;77;21082;-70
2022/12/21 07:18:15;;;;;;;5.75;4.05;;;28.50;62.00;;;;;;1819140;78;21149;-69
2022/12/21 07:20:46;;;;;;;9.33;4.65;;;28.50;61.90;;;;;;1844761;76;21105;-71
2022/12/21 07:23:18;;;;;;;4.80;3.80;;;28.50;62.20;;;;;;1851541;76;21147;-70
2022/12/21 07:25:49;;;;;;;6.33;4.12;;;28.50;62.20;;;;;;1885081;76;21132;-71
2022/12/21 07:28:37;;;;;;;5.65;4.03;;;28.60;62.10;;;;;;1823277;78;21166;-70
2022/12/21 07:31:11;;;;;;;7.28;4.65;;;28.60;61.90;;;;;;1876441;75;21062;-72
2022/12/21 07:33:42;;;;;;;6.55;4.03;;;28.60;61.50;;;;;;1807431;79;21106;-70
2022/12/21 07:36:14;;;;;;;6.47;4.20;;;28.50;61.90;;;;;;1820935;77;21146;-70
2022/12/21 07:38:45;;;;;;;6.72;4.05;;;28.60;61.60;;;;;;1879597;76;21101;-71
2022/12/21 07:41:23;;;;;;;6.55;3.85;;;28.60;62.00;;;;;;1820779;77;21102;-69
2022/12/21 07:44:00;;;;;;;6.95;4.40;;;28.60;62.10;;;;;;1820593;77;22063;-69
2022/12/21 07:46:33;;;;;;;7.77;4.33;;;28.60;62.00;;;;;;1821261;77;21096;-71
2022/12/21 07:49:11;;;;;;;7.78;4.50;;;28.50;61.80;;;;;;1859605;76;21086;-70
2022/12/21 07:51:45;;;;;;;7.17;4.53;;;28.50;61.80;;;;;;1853892;75;21673;-70
2022/12/21 07:54:22;;;;;;;6.65;5.00;;;28.40;61.90;;;;;;1818564;77;21245;-69
2022/12/21 07:56:55;;;;;;;6.62;4.90;;;28.40;62.50;;;;;;1822754;77;21814;-70
2022/12/21 07:59:26;;;;;;;5.92;4.53;;;28.30;62.10;;;;;;1841207;76;21127;-71
2022/12/21 08:01:57;;;;;;;5.53;4.03;;;28.30;62.50;;;;;;1844972;77;21203;-72
2022/12/21 08:04:29;;;;;;;6.08;4.40;;;28.30;63.60;;;;;;1810211;78;21404;-71
2022/12/21 08:07:02;;;;;;;6.12;4.17;;;28.30;62.50;;;;;;1827855;76;21142;-71
2022/12/21 08:09:33;;;;;;;8.13;4.72;;;28.30;62.40;;;;;;1808836;76;21199;-71
2022/12/21 08:12:05;;;;;;;7.33;4.20;;;28.20;62.40;;;;;;1782141;80;21099;-70
2022/12/21 08:14:38;;;;;;;5.78;4.47;;;28.20;62.50;;;;;;1775712;79;21554;-71
2022/12/21 08:17:09;;;;;;;6.45;4.15;;;28.20;62.80;;;;;;1804314;78;21097;-70
2022/12/21 08:19:41;;;;;;;9.20;4.47;;;28.20;62.80;;;;;;1837620;77;21195;-71
2022/12/21 08:22:12;;;;;;;5.55;4.55;;;28.20;62.90;;;;;;1813431;79;21106;-70
2022/12/21 08:24:43;;;;;;;8.05;4.40;;;28.10;63.20;;;;;;1799519;79;21090;-71
2022/12/21 08:27:17;;;;;;;8.93;4.40;;;28.10;63.30;;;;;;1791602;79;21545;-70
2022/12/21 08:29:48;;;;;;;7.50;4.55;;;28.10;63.50;;;;;;1846394;75;21232;-71
2022/12/21 08:32:19;;;;;;;5.62;4.30;;;28.10;63.40;;;;;;1782040;78;21237;-72
2022/12/21 08:34:50;;;;;;;6.80;4.40;;;28.10;63.30;;;;;;1783484;80;21135;-71
2022/12/21 08:37:43;;;;;;;7.62;4.62;;;28.10;63.20;;;;;;1794448;78;21232;-71
2022/12/21 08:40:14;;;;;;;5.60;4.50;;;28.10;63.40;;;;;;1755243;81;21142;-71
2022/12/21 08:42:45;;;;;;;7.03;4.58;;;28.00;63.30;;;;;;1766704;81;21154;-70
2022/12/21 08:45:17;;;;;;;6.35;4.50;;;28.00;63.50;;;;;;1760198;81;21137;-70
2022/12/21 08:47:49;;;;;;;6.97;4.78;;;28.00;63.40;;;;;;1773191;80;21665;-70
2022/12/21 08:50:21;;;;;;;7.67;5.00;;;28.00;63.40;;;;;;1745409;80;21123;-70
2022/12/21 08:52:52;;;;;;;7.58;4.47;;;28.00;63.60;;;;;;1747148;80;21110;-70
2022/12/21 08:55:23;;;;;;;7.37;4.70;;;28.00;63.80;;;;;;1751420;81;21181;-70
2022/12/21 08:57:54;;;;;;;7.20;4.53;;;27.90;63.70;;;;;;1751105;81;21154;-70
2022/12/21 09:00:28;;;;;;;6.58;4.50;;;27.90;63.70;;;;;;1745491;80;21105;-72
2022/12/21 09:03:00;;;;;;;8.15;4.92;;;27.90;63.90;;;;;;1730192;81;21630;-70
2022/12/21 09:05:31;;;;;;;8.25;6.12;;;27.80;63.80;;;;;;1740252;81;21225;-70
2022/12/21 09:08:03;;;;;;;10.15;5.70;;;27.80;63.90;;;;;;1741885;81;21284;-70
2022/12/21 09:10:35;;;;;;;11.55;4.95;;;27.90;63.80;;;;;;1770057;79;21110;-70
2022/12/21 09:13:06;;;;;;;9.10;5.83;;;27.90;64.10;;;;;;1765648;81;21636;-70
2022/12/21 09:15:42;;;;;;;8.03;5.12;;;27.80;64.10;;;;;;1766927;81;21165;-69
2022/12/21 09:18:13;;;;;;;8.20;5.15;;;27.80;64.10;;;;;;1772566;80;21543;-70
2022/12/21 09:20:46;;;;;;;6.65;4.60;;;27.80;64.10;;;;;;1769577;81;21547;-69
2022/12/21 09:23:17;;;;;;;6.08;4.83;;;27.80;64.10;;;;;;1759681;80;21125;-70
2022/12/21 09:25:48;;;;;;;8.85;4.40;;;27.80;63.90;;;;;;1773224;79;21169;-70
2022/12/21 09:28:21;;;;;;;15.72;6.67;;;27.70;63.90;;;;;;1764671;80;21082;-69
2022/12/21 09:30:52;;;;;;;8.00;5.03;;;27.70;64.10;;;;;;1764099;80;21178;-70
2022/12/21 09:33:25;;;;;;;8.48;5.55;;;27.70;64.30;;;;;;1737936;80;21940;-71
2022/12/21 09:35:56;;;;;;;8.30;5.22;;;27.70;64.20;;;;;;1776017;80;21133;-70
2022/12/21 09:38:29;;;;;;;11.33;5.65;;;27.60;64.20;;;;;;1753429;80;21079;-70
2022/12/21 09:41:07;;;;;;;9.03;6.17;;;27.60;64.30;;;;;;1769150;79;21254;-69
2022/12/21 09:43:44;;;;;;;9.63;5.12;;;27.60;64.30;;;;;;1748665;80;21185;-70
2022/12/21 09:46:23;;;;;;;6.40;4.65;;;27.50;64.50;;;;;;1790141;78;21666;-70
2022/12/21 09:49:02;;;;;;;8.43;5.08;;;27.50;64.40;;;;;;1766629;80;21679;-71
2022/12/21 09:51:35;;;;;;;8.40;4.55;;;27.50;64.60;;;;;;1821318;78;21181;-70
2022/12/21 09:54:17;;;;;;;5.35;4.42;;;27.40;64.70;;;;;;1772265;79;21162;-70
2022/12/21 09:56:52;;;;;;;6.42;4.67;;;27.30;64.60;;;;;;1770369;80;21106;-70
2022/12/21 09:59:24;;;;;;;7.37;4.55;;;27.30;64.80;;;;;;1768714;80;21740;-70
2022/12/21 10:02:26;;;;;;;8.93;5.92;;;27.30;65.60;;;;;;1774075;79;21742;-70
2022/12/21 10:05:06;;;;;;;8.70;5.50;;;27.20;65.10;;;;;;1767049;79;21097;-70
2022/12/21 10:08:01;;;;;;;8.15;5.80;;;27.20;65.40;;;;;;1801585;78;21548;-70
2022/12/21 10:10:41;;;;;;;9.25;6.15;;;27.10;65.40;;;;;;1770485;81;21151;-71
2022/12/21 10:13:34;;;;;;;13.10;6.30;;;27.10;65.60;;;;;;1779867;79;21088;-71
2022/12/21 10:16:19;;;;;;;11.00;5.78;;;27.00;65.70;;;;;;1778439;80;21136;-69
2022/12/21 10:18:55;;;;;;;;;;;27.00;65.80;;;;;;1774314;80;21766;-69
2022/12/21 10:21:29;;;;;;;9.18;6.05;;;27.00;66.00;;;;;;1797896;80;20436;-70
2022/12/21 10:24:02;;;;;;;10.65;7.50;;;26.90;66.00;;;;;;1735710;80;21525;-67
2022/12/21 10:26:35;;;;;;;11.22;5.50;;;26.90;66.20;;;;;;1736346;81;21668;-68
2022/12/21 10:29:09;;;;;;;9.98;5.55;;;26.90;66.30;;;;;;1776520;80;21132;-68
2022/12/21 10:31:45;;;;;;;12.82;6.78;;;26.80;66.40;;;;;;1801934;78;21632;-68
2022/12/21 10:34:26;;;;;;;9.28;6.15;;;26.80;66.50;;;;;;1745643;82;21282;-70
2022/12/21 10:37:03;;;;;;;9.90;6.65;;;26.80;66.90;;;;;;1795948;80;21561;-69
2022/12/21 10:39:34;;;;;;;10.25;6.70;;;26.70;66.80;;;;;;1803733;77;21231;-70
2022/12/21 10:42:24;;;;;;;10.95;6.87;;;26.70;67.00;;;;;;1771295;80;21210;-70
2022/12/21 10:44:55;;;;;;;10.20;6.17;;;26.60;67.00;;;;;;1752696;81;21632;-71
2022/12/21 10:47:28;;;;;;;13.50;7.50;;;26.60;67.30;;;;;;1778619;79;21090;-69
2022/12/21 10:50:16;;;;;;;12.50;7.35;;;26.60;67.50;;;;;;1797332;80;21118;-68
2022/12/21 10:52:49;;;;;;;12.47;7.87;;;26.50;67.60;;;;;;1754200;81;21221;-69
2022/12/21 10:55:26;;;;;;;15.20;7.72;;;26.50;67.80;;;;;;1757149;81;21616;-66
2022/12/21 10:58:04;;;;;;;;;;;26.40;68.10;;;;;;1768584;80;21644;-70
2022/12/21 11:00:38;;;;;;;15.43;9.75;;;26.40;67.70;;;;;;1795821;80;20185;-70
2022/12/21 11:03:23;;;;;;;13.32;9.05;;;26.40;68.30;;;;;;1761975;81;21214;-70
2022/12/21 11:05:59;;;;;;;16.75;9.10;;;26.40;68.40;;;;;;1754372;80;21183;-69
2022/12/21 11:08:32;;;;;;;13.98;8.95;;;26.40;68.40;;;;;;1787887;79;21172;-69
2022/12/21 11:11:05;;;;;;;22.50;12.20;;;26.40;68.60;;;;;;1759407;80;21094;-69
2022/12/21 11:13:39;;;;;;;35.30;23.10;;;26.40;68.70;;;;;;1787736;79;21527;-69
2022/12/21 11:16:12;;;;;;;38.53;25.02;;;26.30;68.70;;;;;;1815299;79;21100;-69
2022/12/21 11:18:46;;;;;;;37.38;23.30;;;26.30;68.80;;;;;;1809034;79;21117;-70
2022/12/21 11:21:35;;;;;;;33.60;20.17;;;26.40;69.00;;;;;;1818669;77;21189;-70
2022/12/21 11:24:14;;;;;;;25.07;15.93;;;26.30;69.10;;;;;;1800274;79;21141;-70
2022/12/21 11:26:48;;;;;;;29.00;17.15;;;26.30;69.00;;;;;;1819882;77;21244;-70
2022/12/21 11:29:27;;;;;;;28.75;15.10;;;26.30;69.20;;;;;;1783075;80;21102;-69
2022/12/21 11:32:04;;;;;;;21.80;15.08;;;26.30;69.80;;;;;;1792542;79;21594;-69
2022/12/21 11:34:41;;;;;;;24.92;16.73;;;26.30;69.40;;;;;;1802044;79;21107;-69
2022/12/21 11:37:34;;;;;;;26.52;17.02;;;26.30;69.50;;;;;;1797568;79;21113;-69
2022/12/21 11:40:16;;;;;;;25.95;17.05;;;26.20;69.70;;;;;;1794995;79;21106;-69
2022/12/21 11:43:05;;;;;;;25.20;16.65;;;26.10;69.70;;;;;;1768948;80;21129;-70
2022/12/21 11:46:04;;;;;;;23.62;15.32;;;26.20;70.00;;;;;;1776653;79;21085;-68
2022/12/21 11:49:01;;;;;;;22.60;14.10;;;26.10;70.00;;;;;;1740608;82;21132;-70
2022/12/21 11:51:41;;;;;;;23.30;14.58;;;26.10;70.10;;;;;;1711693;84;21203;-70
2022/12/21 11:54:32;;;;;;;22.27;13.85;;;26.10;70.30;;;;;;1733502;81;21198;-70
2022/12/21 11:57:38;;;;;;;23.98;14.50;;;26.10;70.20;;;;;;1681862;83;21217;-70
2022/12/21 12:00:18;;;;;;;19.80;14.53;;;26.00;70.20;;;;;;1753809;80;21191;-70
2022/12/21 12:03:15;;;;;;;20.43;13.93;;;26.00;70.30;;;;;;1790306;79;21117;-70
2022/12/21 12:05:52;;;;;;;19.32;14.33;;;26.00;70.40;;;;;;1803900;79;21592;-69
2022/12/21 12:08:37;;;;;;;24.20;14.13;;;26.00;70.40;;;;;;1756015;81;21168;-68
2022/12/21 12:11:26;;;;;;;23.27;14.93;;;26.00;70.40;;;;;;1733100;81;21632;-69
2022/12/21 12:14:06;;;;;;;22.55;15.13;;;25.90;70.60;;;;;;1752315;80;21576;-69
2022/12/21 12:16:49;;;;;;;22.20;15.78;;;25.90;70.70;;;;;;1775141;80;21117;-69
2022/12/21 12:19:32;;;;;;;25.68;16.00;;;25.90;70.90;;;;;;1777698;80;21566;-70
2022/12/21 12:22:30;;;;;;;25.30;16.70;;;25.90;71.00;;;;;;1766495;80;21245;-70
2022/12/21 12:25:04;;;;;;;20.62;14.78;;;25.80;71.20;;;;;;1778684;79;21591;-69
2022/12/21 12:27:55;;;;;;;25.35;15.53;;;25.80;71.30;;;;;;1746901;80;21123;-68
2022/12/21 12:30:29;;;;;;;27.50;15.05;;;25.80;71.60;;;;;;1777023;78;21172;-70
2022/12/21 12:33:28;;;;;;;22.20;14.10;;;25.80;71.50;;;;;;1723751;82;21569;-70
2022/12/21 12:36:02;;;;;;;20.43;14.25;;;25.70;71.40;;;;;;1744500;80;21578;-69
2022/12/21 12:38:54;;;;;;;23.12;14.40;;;25.80;71.60;;;;;;1801337;78;21146;-70
2022/12/21 12:41:52;;;;;;;24.52;16.23;;;25.70;71.50;;;;;;1799343;78;21155;-69
2022/12/21 12:44:29;;;;;;;25.25;16.23;;;25.70;71.60;;;;;;1806069;78;21192;-69
2022/12/21 12:47:28;;;;;;;31.57;16.77;;;25.70;71.60;;;;;;1805426;78;21078;-69
2022/12/21 12:50:20;;;;;;;22.82;15.68;;;25.70;71.60;;;;;;1757043;79;21661;-69
2022/12/21 12:53:21;;;;;;;22.48;14.80;;;25.70;71.60;;;;;;1790761;78;21150;-69
2022/12/21 12:55:57;;;;;;;21.95;14.63;;;25.70;71.60;;;;;;1810870;78;21093;-70
2022/12/21 12:58:38;;;;;;;20.77;14.85;;;25.70;71.60;;;;;;1793526;78;21109;-70
2022/12/21 13:01:21;;;;;;;21.55;15.30;;;25.70;71.70;;;;;;1796382;78;21694;-71
2022/12/21 13:04:13;;;;;;;28.40;15.65;;;25.60;71.80;;;;;;1794970;78;21117;-69
2022/12/21 13:07:05;;;;;;;23.27;15.15;;;25.60;71.80;;;;;;1800101;78;21094;-70
2022/12/21 13:09:51;;;;;;;21.65;13.88;;;25.60;71.90;;;;;;1808588;78;21560;-69
2022/12/21 13:12:39;;;;;;;24.40;15.03;;;25.60;72.00;;;;;;1796873;78;21163;-69
2022/12/21 13:15:38;;;;;;;22.85;15.75;;;25.60;72.10;;;;;;1802587;78;21490;-68
2022/12/21 13:18:21;;;;;;;23.32;16.45;;;25.50;72.10;;;;;;1769116;78;21569;-70
2022/12/21 13:20:54;;;;;;;24.80;15.05;;;25.50;72.20;;;;;;1801716;78;21659;-69
2022/12/21 13:23:49;;;;;;;26.60;16.23;;;25.50;72.30;;;;;;1801438;78;21151;-70
2022/12/21 13:26:35;;;;;;;34.73;17.17;;;25.50;72.40;;;;;;1802081;78;21187;-71
2022/12/21 13:29:08;;;;;;;25.60;18.10;;;25.40;72.40;;;;;;1801019;78;21196;-74
2022/12/21 13:31:45;;;;;;;24.77;17.32;;;25.40;72.70;;;;;;1783424;80;21280;-71
2022/12/21 13:34:25;;;;;;;28.85;17.95;;;25.40;72.70;;;;;;1822876;78;21159;-71
2022/12/21 13:36:57;;;;;;;27.07;17.42;;;25.40;73.00;;;;;;1797125;78;21187;-70
2022/12/21 13:39:35;;;;;;;29.02;18.57;;;25.30;73.00;;;;;;1797317;78;21086;-71
2022/12/21 13:42:15;;;;;;;36.63;19.73;;;25.30;73.20;;;;;;1815913;77;21244;-70